createdAt,value
2023-01-10T00:02:02.406Z,17.15
2023-01-10T00:04:30.949Z,17.50
2023-01-10T00:06:58.411Z,15.73
2023-01-10T00:09:25.964Z,16.75
2023-01-10T00:12:11.659Z,16.08
2023-01-10T00:14:39.386Z,16.65
2023-01-10T00:17:06.653Z,15.38
2023-01-10T00:19:34.282Z,15.05
2023-01-10T00:22:05.806Z,15.13
2023-01-10T00:24:33.369Z,15.25
2023-01-10T00:27:00.766Z,13.90
2023-01-10T00:29:35.345Z,14.02
2023-01-10T00:32:02.660Z,15.50
2023-01-10T00:34:31.238Z,15.00
2023-01-10T00:36:58.603Z,14.85
2023-01-10T00:39:27.711Z,15.05
2023-01-10T00:42:13.305Z,13.85
2023-01-10T00:44:40.877Z,14.38
2023-01-10T00:47:08.166Z,14.68
2023-01-10T00:49:35.680Z,13.80
2023-01-10T00:52:02.996Z,13.93
2023-01-10T00:54:30.649Z,13.75
2023-01-10T00:56:58.205Z,12.70
2023-01-10T00:59:25.851Z,13.70
2023-01-10T01:01:53.585Z,13.48
2023-01-10T01:04:22.241Z,13.27
2023-01-10T01:06:50.888Z,13.18
2023-01-10T01:09:18.648Z,12.15
2023-01-10T01:11:45.994Z,12.07
2023-01-10T01:14:13.660Z,12.15
2023-01-10T01:16:40.936Z,12.05
2023-01-10T01:19:08.505Z,12.48
2023-01-10T01:21:35.776Z,11.95
2023-01-10T01:24:03.434Z,12.32
2023-01-10T01:26:30.794Z,11.43
2023-01-10T01:28:58.440Z,11.27
2023-01-10T01:31:26.005Z,10.73
2023-01-10T01:33:53.854Z,11.82
2023-01-10T01:36:21.186Z,10.52
2023-01-10T01:38:48.759Z,11.80
2023-01-10T01:41:34.600Z,11.73
2023-01-10T01:44:14.975Z,10.27
2023-01-10T01:46:49.296Z,11.07
2023-01-10T01:49:24.949Z,10.40
2023-01-10T01:52:04.637Z,10.68
2023-01-10T01:54:34.405Z,10.52
2023-01-10T01:57:12.417Z,10.00
2023-01-10T01:59:46.921Z,10.40
2023-01-10T02:02:22.792Z,10.07
2023-01-10T02:05:03.464Z,10.40
2023-01-10T02:07:37.975Z,11.05
2023-01-10T02:10:48.989Z,10.00
2023-01-10T02:13:22.257Z,10.52
2023-01-10T02:15:50.838Z,10.40
2023-01-10T02:18:19.439Z,9.70
2023-01-10T02:21:09.687Z,9.77
2023-01-10T02:24:16.407Z,11.70
2023-01-10T02:27:17.262Z,12.38
2023-01-10T02:31:02.563Z,13.35
2023-01-10T02:34:11.475Z,12.10
2023-01-10T02:36:44.567Z,12.98
2023-01-10T02:39:58.400Z,13.05
2023-01-10T02:42:58.407Z,13.25
2023-01-10T02:45:42.493Z,13.90
2023-01-10T02:48:09.987Z,14.18
2023-01-10T02:50:43.358Z,12.98
2023-01-10T02:53:23.195Z,13.10
2023-01-10T02:56:05.345Z,13.20
2023-01-10T02:58:41.061Z,13.45
2023-01-10T03:01:51.057Z,11.68
2023-01-10T03:04:27.259Z,14.38
2023-01-10T03:07:09.685Z,12.13
2023-01-10T03:10:10.221Z,12.98
2023-01-10T03:13:02.252Z,12.65
2023-01-10T03:15:37.200Z,9.85
2023-01-10T03:18:14.299Z,9.10
2023-01-10T03:20:46.249Z,7.85
2023-01-10T03:23:17.029Z,7.93
2023-01-10T03:25:48.268Z,7.97
2023-01-10T03:28:26.345Z,7.97
2023-01-10T03:31:10.143Z,5.97
2023-01-10T03:33:39.066Z,5.85
2023-01-10T03:37:05.814Z,5.90
2023-01-10T03:40:08.648Z,4.70
2023-01-10T03:43:44.466Z,6.20
2023-01-10T03:46:26.305Z,5.45
2023-01-10T03:48:57.769Z,4.97
2023-01-10T03:51:27.727Z,6.38
2023-01-10T03:53:55.085Z,9.60
2023-01-10T03:56:22.697Z,9.90
2023-01-10T03:58:50.012Z,11.02
2023-01-10T04:01:17.665Z,11.65
2023-01-10T04:03:45.122Z,11.13
2023-01-10T04:06:12.714Z,10.40
2023-01-10T04:08:40.050Z,8.95
2023-01-10T04:11:07.632Z,9.20
2023-01-10T04:13:35.558Z,10.23
2023-01-10T04:16:03.153Z,11.13
2023-01-10T04:18:30.424Z,10.88
2023-01-10T04:20:57.942Z,9.85
2023-01-10T04:23:25.210Z,13.85
2023-01-10T04:25:52.713Z,18.30
2023-01-10T04:28:19.961Z,14.30
2023-01-10T04:30:47.459Z,15.00
2023-01-10T04:33:14.650Z,15.40
2023-01-10T04:35:51.199Z,13.85
2023-01-10T04:38:19.207Z,16.25
2023-01-10T04:40:57.094Z,13.93
2023-01-10T04:43:25.630Z,14.65
2023-01-10T04:45:53.313Z,16.20
2023-01-10T04:48:20.692Z,14.90
2023-01-10T04:50:52.555Z,15.45
2023-01-10T04:53:21.410Z,17.13
2023-01-10T04:55:49.291Z,17.27
2023-01-10T04:58:16.746Z,14.90
2023-01-10T05:00:44.387Z,16.98
2023-01-10T05:03:11.785Z,17.42
2023-01-10T05:05:39.323Z,16.30
2023-01-10T05:08:06.620Z,16.20
2023-01-10T05:10:34.088Z,17.88
2023-01-10T05:13:01.334Z,15.30
2023-01-10T05:15:28.892Z,16.40
2023-01-10T05:18:00.937Z,16.58
2023-01-10T05:20:28.551Z,16.17
2023-01-10T05:22:55.848Z,15.52
2023-01-10T05:25:23.382Z,16.30
2023-01-10T05:27:50.746Z,18.73
2023-01-10T05:30:18.886Z,19.30
2023-01-10T05:32:46.370Z,19.35
2023-01-10T05:35:14.161Z,18.90
2023-01-10T05:37:41.421Z,17.17
2023-01-10T05:40:10.477Z,18.02
2023-01-10T05:42:37.899Z,18.77
2023-01-10T05:45:06.187Z,19.25
2023-01-10T05:47:33.440Z,20.27
2023-01-10T05:50:00.986Z,18.85
2023-01-10T05:52:28.332Z,21.48
2023-01-10T05:54:55.903Z,20.90
2023-01-10T05:57:24.758Z,19.20
2023-01-10T05:59:52.813Z,19.70
2023-01-10T06:02:20.092Z,18.67
2023-01-10T06:04:47.825Z,17.98
2023-01-10T06:07:15.471Z,17.92
2023-01-10T06:09:43.184Z,18.38
2023-01-10T06:12:10.569Z,15.85
2023-01-10T06:14:38.129Z,18.13
2023-01-10T06:17:10.097Z,15.70
2023-01-10T06:19:37.712Z,15.45
2023-01-10T06:22:05.414Z,16.27
2023-01-10T06:24:32.904Z,16.25
2023-01-10T06:27:00.194Z,16.70
2023-01-10T06:29:27.849Z,17.00
2023-01-10T06:31:55.370Z,17.52
2023-01-10T06:34:22.929Z,18.00
2023-01-10T06:36:50.192Z,19.52
2023-01-10T06:39:17.812Z,19.08
2023-01-10T06:41:45.078Z,19.58
2023-01-10T06:44:12.762Z,16.58
2023-01-10T06:46:40.239Z,18.05
2023-01-10T06:49:08.745Z,17.15
2023-01-10T06:51:36.117Z,14.63
2023-01-10T06:54:03.774Z,18.75
2023-01-10T06:56:31.183Z,20.38
2023-01-10T06:58:58.745Z,23.48
2023-01-10T07:01:26.688Z,22.10
2023-01-10T07:03:54.391Z,19.98
2023-01-10T07:06:21.676Z,18.35
2023-01-10T07:08:49.293Z,16.35
2023-01-10T07:11:17.840Z,14.75
2023-01-10T07:13:45.426Z,14.77
2023-01-10T07:16:16.366Z,16.67
2023-01-10T07:18:44.560Z,17.88
2023-01-10T07:21:13.055Z,16.02
2023-01-10T07:23:40.619Z,15.45
2023-01-10T07:26:11.955Z,16.63
2023-01-10T07:28:39.544Z,16.10
2023-01-10T07:31:06.976Z,13.45
2023-01-10T07:33:34.530Z,15.13
2023-01-10T07:36:03.132Z,15.93
2023-01-10T07:38:30.820Z,12.38
2023-01-10T07:40:58.087Z,10.80
2023-01-10T07:43:25.657Z,11.57
2023-01-10T07:45:53.033Z,11.57
2023-01-10T07:48:20.721Z,10.05
2023-01-10T07:50:48.013Z,10.20
2023-01-10T07:53:15.896Z,10.05
2023-01-10T07:55:45.839Z,8.23
2023-01-10T07:58:13.403Z,7.03
2023-01-10T08:00:40.689Z,7.30
2023-01-10T08:03:10.846Z,8.50
2023-01-10T08:05:38.536Z,8.50
2023-01-10T08:08:08.078Z,7.93
2023-01-10T08:10:37.278Z,9.13
2023-01-10T08:13:17.940Z,11.77
2023-01-10T08:15:50.311Z,11.98
2023-01-10T08:18:19.937Z,13.23
2023-01-10T08:20:50.733Z,12.10
2023-01-10T08:23:20.574Z,11.77
2023-01-10T08:25:48.448Z,16.33
2023-01-10T08:28:16.164Z,12.85
2023-01-10T08:30:44.110Z,12.88
2023-01-10T08:33:12.591Z,11.75
2023-01-10T08:35:43.119Z,12.80
2023-01-10T08:38:11.795Z,12.75
2023-01-10T08:40:39.272Z,13.48
2023-01-10T08:43:11.732Z,13.38
2023-01-10T08:45:39.823Z,13.55
2023-01-10T08:48:09.543Z,14.45
2023-01-10T08:50:37.354Z,13.10
2023-01-10T08:53:05.502Z,15.55
2023-01-10T08:55:35.744Z,13.57
2023-01-10T08:58:03.723Z,13.88
2023-01-10T09:00:31.415Z,13.75
2023-01-10T09:02:59.127Z,16.25
2023-01-10T09:05:28.002Z,16.25
2023-01-10T09:08:02.041Z,18.33
2023-01-10T09:10:30.373Z,19.52
2023-01-10T09:13:01.686Z,18.83
2023-01-10T09:15:35.766Z,16.90
2023-01-10T09:18:07.320Z,17.00
2023-01-10T09:20:41.047Z,19.30
2023-01-10T09:23:12.585Z,19.25
2023-01-10T09:25:39.854Z,19.67
2023-01-10T09:28:07.641Z,18.55
2023-01-10T09:30:35.567Z,19.10
2023-01-10T09:33:04.347Z,18.50
2023-01-10T09:35:35.687Z,19.55
2023-01-10T09:38:06.679Z,21.67
2023-01-10T09:40:55.797Z,19.95
2023-01-10T09:43:28.902Z,23.42
2023-01-10T09:46:18.112Z,33.58
2023-01-10T09:49:13.748Z,29.05
2023-01-10T09:51:52.401Z,23.95
2023-01-10T09:54:31.810Z,24.27
2023-01-10T09:57:02.077Z,24.75
2023-01-10T09:59:43.053Z,25.55
2023-01-10T10:02:44.506Z,24.23
2023-01-10T10:05:25.203Z,24.88
2023-01-10T10:08:00.352Z,25.80
2023-01-10T10:10:39.971Z,27.98
2023-01-10T10:13:28.097Z,23.55
2023-01-10T10:16:10.761Z,22.95
2023-01-10T10:18:50.027Z,23.10
2023-01-10T10:22:07.479Z,22.52
2023-01-10T10:25:14.986Z,20.55
2023-01-10T10:28:13.059Z,18.77
2023-01-10T10:31:13.903Z,18.65
2023-01-10T10:34:29.245Z,21.13
2023-01-10T10:37:18.907Z,20.98
2023-01-10T10:40:11.873Z,22.90
2023-01-10T10:42:51.074Z,21.35
2023-01-10T10:45:46.335Z,21.42
2023-01-10T10:48:27.563Z,21.00
2023-01-10T10:51:36.534Z,20.25
2023-01-10T10:54:04.106Z,19.83
2023-01-10T10:56:32.474Z,20.05
2023-01-10T10:59:01.038Z,17.10
2023-01-10T11:01:28.833Z,19.52
2023-01-10T11:04:08.954Z,19.75
2023-01-10T11:06:41.123Z,20.90
2023-01-10T11:09:08.769Z,20.27
2023-01-10T11:11:45.740Z,19.02
2023-01-10T11:14:13.755Z,20.50
2023-01-10T11:16:45.090Z,21.85
2023-01-10T11:19:15.564Z,20.75
2023-01-10T11:21:57.679Z,22.48
2023-01-10T11:24:51.736Z,22.13
2023-01-10T11:27:25.907Z,21.77
2023-01-10T11:30:00.726Z,19.85
2023-01-10T11:32:40.036Z,21.88
2023-01-10T11:35:34.492Z,21.52
2023-01-10T11:38:19.975Z,21.60
2023-01-10T11:41:06.768Z,21.90
2023-01-10T11:43:41.083Z,22.33
2023-01-10T11:46:23.190Z,20.88
2023-01-10T11:49:14.926Z,20.08
2023-01-10T11:51:58.574Z,21.27
2023-01-10T11:54:29.628Z,22.13
2023-01-10T11:57:14.712Z,21.10
2023-01-10T11:59:56.618Z,21.30
2023-01-10T12:02:29.704Z,22.55
2023-01-10T12:05:04.351Z,22.85
2023-01-10T12:07:56.310Z,23.05
2023-01-10T12:10:27.746Z,22.67
2023-01-10T12:13:08.279Z,22.75
2023-01-10T12:15:36.807Z,21.98
2023-01-10T12:18:06.992Z,22.60
2023-01-10T12:20:52.118Z,21.77
2023-01-10T12:23:25.385Z,19.75
2023-01-10T12:26:07.094Z,18.88
2023-01-10T12:28:44.089Z,17.63
2023-01-10T12:31:15.554Z,20.73
2023-01-10T12:33:51.578Z,19.67
2023-01-10T12:36:36.145Z,20.27
2023-01-10T12:40:02.366Z,19.98
2023-01-10T12:43:10.408Z,18.70
2023-01-10T12:45:57.058Z,20.33
2023-01-10T12:49:13.901Z,19.83
2023-01-10T12:51:43.462Z,20.58
2023-01-10T12:54:22.279Z,21.35
2023-01-10T12:56:51.064Z,26.45
2023-01-10T12:59:37.313Z,27.30
2023-01-10T13:02:19.720Z,26.42
2023-01-10T13:04:59.881Z,23.27
2023-01-10T13:07:33.702Z,15.98
2023-01-10T13:10:07.264Z,16.73
2023-01-10T13:12:43.232Z,16.02
2023-01-10T13:15:38.743Z,14.23
2023-01-10T13:18:26.131Z,18.05
2023-01-10T13:21:13.813Z,16.88
2023-01-10T13:23:50.536Z,17.52
2023-01-10T13:26:19.503Z,16.33
2023-01-10T13:29:01.682Z,16.55
2023-01-10T13:31:35.360Z,16.98
2023-01-10T13:34:11.422Z,18.20
2023-01-10T13:37:00.515Z,16.75
2023-01-10T13:39:41.782Z,17.17
2023-01-10T13:42:27.861Z,14.85
2023-01-10T13:45:01.507Z,15.07
2023-01-10T13:47:43.328Z,14.60
2023-01-10T13:50:25.848Z,16.88
2023-01-10T13:53:04.396Z,15.10
2023-01-10T13:55:42.843Z,15.75
2023-01-10T13:58:13.439Z,14.82
2023-01-10T14:00:59.449Z,15.52
2023-01-10T14:04:00.002Z,15.27
2023-01-10T14:06:30.848Z,16.48
2023-01-10T14:09:24.640Z,16.05
2023-01-10T14:11:58.926Z,15.88
2023-01-10T14:14:37.256Z,18.08
2023-01-10T14:17:29.803Z,19.40
2023-01-10T14:20:16.805Z,18.05
2023-01-10T14:23:07.904Z,20.08
2023-01-10T14:25:38.194Z,18.92
2023-01-10T14:28:20.382Z,18.67
2023-01-10T14:31:01.400Z,18.48
2023-01-10T14:33:30.280Z,19.60
2023-01-10T14:36:06.581Z,21.77
2023-01-10T14:38:38.992Z,20.65
2023-01-10T14:41:27.343Z,20.58
2023-01-10T14:44:02.668Z,20.33
2023-01-10T14:46:55.223Z,21.75
2023-01-10T14:49:26.040Z,20.17
2023-01-10T14:52:01.039Z,19.77
2023-01-10T14:54:29.557Z,18.45
2023-01-10T14:56:57.690Z,18.75
2023-01-10T14:59:34.545Z,17.45
2023-01-10T15:02:24.803Z,23.15
2023-01-10T15:04:58.187Z,19.13
2023-01-10T15:07:28.478Z,18.38
2023-01-10T15:10:02.592Z,18.85
2023-01-10T15:12:35.258Z,20.40
2023-01-10T15:15:15.932Z,21.10
2023-01-10T15:17:45.817Z,21.08
2023-01-10T15:20:19.240Z,20.42
2023-01-10T15:23:01.398Z,22.27
2023-01-10T15:25:38.146Z,22.02
2023-01-10T15:28:15.411Z,19.20
2023-01-10T15:30:44.207Z,19.52
2023-01-10T15:33:23.072Z,19.52
2023-01-10T15:35:50.527Z,21.13
2023-01-10T15:38:27.348Z,20.65
2023-01-10T15:41:06.144Z,21.88
2023-01-10T15:43:36.863Z,24.08
2023-01-10T15:46:06.247Z,21.88
2023-01-10T15:48:43.817Z,23.08
2023-01-10T15:51:15.313Z,21.90
2023-01-10T15:54:10.556Z,21.58
2023-01-10T15:56:47.647Z,24.08
2023-01-10T15:59:33.726Z,23.77
2023-01-10T16:02:22.944Z,24.23
2023-01-10T16:04:57.489Z,25.98
2023-01-10T16:07:42.040Z,25.73
2023-01-10T16:10:27.204Z,25.15
2023-01-10T16:13:28.916Z,29.10
2023-01-10T16:16:01.373Z,23.77
2023-01-10T16:18:28.755Z,26.98
2023-01-10T16:21:00.944Z,29.10
2023-01-10T16:23:36.258Z,28.80
2023-01-10T16:26:09.519Z,25.80
2023-01-10T16:28:38.010Z,24.58
2023-01-10T16:31:14.803Z,28.50
2023-01-10T16:33:42.258Z,25.75
2023-01-10T16:36:20.982Z,27.75
2023-01-10T16:38:48.684Z,30.33
2023-01-10T16:41:35.002Z,28.23
2023-01-10T16:44:02.662Z,27.73
2023-01-10T16:46:31.169Z,26.42
2023-01-10T16:48:58.570Z,22.92
2023-01-10T16:51:32.699Z,24.48
2023-01-10T16:54:00.851Z,22.85
2023-01-10T16:56:30.104Z,20.85
2023-01-10T16:58:58.168Z,22.92
2023-01-10T17:01:34.953Z,20.90
2023-01-10T17:04:04.784Z,20.40
2023-01-10T17:06:32.570Z,21.30
2023-01-10T17:08:59.987Z,20.50
2023-01-10T17:11:37.292Z,19.80
2023-01-10T17:14:05.615Z,18.45
2023-01-10T17:16:35.296Z,18.42
2023-01-10T17:19:02.787Z,19.20
2023-01-10T17:21:30.396Z,18.77
2023-01-10T17:23:57.685Z,19.70
2023-01-10T17:26:25.384Z,21.65
2023-01-10T17:28:52.655Z,19.67
2023-01-10T17:31:20.508Z,22.10
2023-01-10T17:33:51.046Z,25.05
2023-01-10T17:36:19.600Z,28.42
2023-01-10T17:38:47.190Z,22.70
2023-01-10T17:41:15.014Z,23.05
2023-01-10T17:43:42.314Z,21.30
2023-01-10T17:46:11.130Z,21.45
2023-01-10T17:48:38.972Z,20.45
2023-01-10T17:51:07.709Z,20.83
2023-01-10T17:53:35.448Z,21.00
2023-01-10T17:56:05.884Z,21.25
2023-01-10T17:58:35.052Z,20.80
2023-01-10T18:01:02.546Z,19.23
2023-01-10T18:03:30.180Z,20.20
2023-01-10T18:05:59.427Z,22.15
2023-01-10T18:08:27.272Z,21.38
2023-01-10T18:11:04.615Z,20.80
2023-01-10T18:13:32.276Z,18.65
2023-01-10T18:16:01.640Z,20.65
2023-01-10T18:18:30.683Z,19.90
2023-01-10T18:21:01.051Z,19.33
2023-01-10T18:23:30.838Z,18.85
2023-01-10T18:26:04.345Z,19.63
2023-01-10T18:28:42.945Z,22.15
2023-01-10T18:31:18.916Z,23.73
2023-01-10T18:33:48.062Z,21.73
2023-01-10T18:36:24.370Z,20.42
2023-01-10T18:38:53.044Z,18.98
2023-01-10T18:41:21.624Z,17.90
2023-01-10T18:43:49.741Z,17.70
2023-01-10T18:46:21.967Z,18.45
2023-01-10T18:48:52.960Z,17.60
2023-01-10T18:51:22.719Z,20.90
2023-01-10T18:53:53.016Z,24.67
2023-01-10T18:56:20.546Z,21.42
2023-01-10T18:58:48.232Z,22.95
2023-01-10T19:01:20.047Z,21.38
2023-01-10T19:03:48.242Z,20.92
2023-01-10T19:06:18.310Z,20.10
2023-01-10T19:08:47.482Z,20.52
2023-01-10T19:11:16.686Z,21.20
2023-01-10T19:13:47.133Z,23.52
2023-01-10T19:16:26.469Z,30.45
2023-01-10T19:18:57.864Z,28.80
2023-01-10T19:21:27.521Z,39.67
2023-01-10T19:23:59.746Z,29.65
2023-01-10T19:26:27.606Z,27.70
2023-01-10T19:28:55.226Z,26.30
2023-01-10T19:31:26.931Z,23.55
2023-01-10T19:33:58.849Z,23.67
2023-01-10T19:36:26.906Z,23.00
2023-01-10T19:38:57.491Z,24.30
2023-01-10T19:41:27.946Z,23.95
2023-01-10T19:44:01.394Z,24.83
2023-01-10T19:46:32.335Z,21.20
2023-01-10T19:49:07.868Z,21.67
2023-01-10T19:51:40.791Z,21.80
2023-01-10T19:54:09.174Z,20.45
2023-01-10T19:56:37.080Z,21.00
2023-01-10T19:59:04.712Z,19.92
2023-01-10T20:01:32.366Z,20.00
2023-01-10T20:04:06.549Z,20.88
2023-01-10T20:06:39.047Z,22.88
2023-01-10T20:09:08.664Z,22.52
2023-01-10T20:11:40.458Z,22.67
2023-01-10T20:14:20.620Z,23.50
2023-01-10T20:16:49.095Z,25.23
2023-01-10T20:19:17.641Z,24.65
2023-01-10T20:21:45.045Z,24.52
2023-01-10T20:24:19.221Z,24.77
2023-01-10T20:26:49.798Z,23.90
2023-01-10T20:29:18.959Z,22.83
2023-01-10T20:31:49.728Z,23.20
2023-01-10T20:34:17.461Z,22.98
2023-01-10T20:36:44.870Z,25.02
2023-01-10T20:39:12.721Z,22.38
2023-01-10T20:41:40.090Z,23.58
2023-01-10T20:44:07.730Z,24.50
2023-01-10T20:46:36.796Z,23.33
2023-01-10T20:49:04.703Z,23.42
2023-01-10T20:51:35.497Z,24.80
2023-01-10T20:54:05.964Z,23.63
2023-01-10T20:56:33.443Z,23.77
2023-01-10T20:59:01.759Z,24.88
2023-01-10T21:01:35.179Z,26.48
2023-01-10T21:04:06.564Z,32.17
2023-01-10T21:06:35.479Z,31.98
2023-01-10T21:09:04.639Z,27.08
2023-01-10T21:11:36.733Z,29.25
2023-01-10T21:14:13.212Z,28.88
2023-01-10T21:16:40.440Z,28.52
2023-01-10T21:19:10.527Z,30.08
2023-01-10T21:21:38.466Z,29.50
2023-01-10T21:24:06.569Z,31.73
2023-01-10T21:26:33.909Z,30.98
2023-01-10T21:29:02.557Z,29.48
2023-01-10T21:31:30.064Z,36.20
2023-01-10T21:33:57.670Z,39.70
2023-01-10T21:36:25.113Z,38.85
2023-01-10T21:38:52.849Z,32.38
2023-01-10T21:41:39.379Z,31.45
2023-01-10T21:44:08.107Z,30.45
2023-01-10T21:46:36.469Z,29.35
2023-01-10T21:49:04.986Z,29.10
2023-01-10T21:51:32.328Z,27.15
2023-01-10T21:53:59.924Z,26.15
2023-01-10T21:56:27.181Z,28.98
2023-01-10T21:58:54.695Z,28.35
2023-01-10T22:01:22.078Z,28.15
2023-01-10T22:03:49.721Z,27.75
2023-01-10T22:06:17.230Z,30.27
2023-01-10T22:08:44.803Z,28.10
2023-01-10T22:11:12.168Z,28.25
2023-01-10T22:13:40.306Z,30.17
2023-01-10T22:16:08.109Z,28.27
2023-01-10T22:18:35.827Z,29.77
2023-01-10T22:21:03.453Z,27.23
2023-01-10T22:23:31.286Z,29.02
2023-01-10T22:26:05.600Z,33.20
2023-01-10T22:28:34.307Z,32.58
2023-01-10T22:31:02.619Z,29.00
2023-01-10T22:33:35.018Z,32.28
2023-01-10T22:36:06.606Z,33.92
2023-01-10T22:38:34.925Z,32.90
2023-01-10T22:41:15.146Z,36.10
2023-01-10T22:43:43.512Z,34.90
2023-01-10T22:46:11.238Z,31.80
2023-01-10T22:48:38.893Z,33.13
2023-01-10T22:51:06.942Z,30.73
2023-01-10T22:53:35.512Z,32.50
2023-01-10T22:56:06.004Z,29.45
2023-01-10T22:58:47.814Z,30.02
2023-01-10T23:01:19.581Z,29.95
2023-01-10T23:03:47.838Z,28.42
2023-01-10T23:06:17.224Z,26.80
2023-01-10T23:08:45.297Z,25.63
2023-01-10T23:11:17.382Z,26.42
2023-01-10T23:13:46.671Z,27.00
2023-01-10T23:16:20.287Z,27.13
2023-01-10T23:18:49.591Z,29.25
2023-01-10T23:21:17.046Z,29.90
2023-01-10T23:23:44.651Z,31.13
2023-01-10T23:26:13.521Z,29.80
2023-01-10T23:28:50.803Z,29.05
2023-01-10T23:31:22.537Z,30.10
2023-01-10T23:33:51.375Z,29.15
2023-01-10T23:36:19.149Z,30.02
2023-01-10T23:38:46.787Z,32.55
2023-01-10T23:41:14.211Z,32.92
2023-01-10T23:43:42.800Z,31.45
2023-01-10T23:46:10.424Z,32.38
2023-01-10T23:48:38.226Z,29.48
2023-01-10T23:51:07.885Z,27.73
2023-01-10T23:53:35.495Z,25.05
2023-01-10T23:56:14.945Z,24.15
2023-01-10T23:58:42.531Z,23.08
